Flight Track Log - Related Links

Times and Time Zones

All times are in EDT time to prevent confusion due to time zone crossing. See the JBU917 flight status page for this flight to view local times or setup timezone preferences in your user account.


Time Position Orientation Groundspeed Altitude Reporting Facility
EDT Latitude Longitude Course Direction KTS MPH feet Rate Location/Type
Wed 09:19:23 PM 40.6333 -73.6833 304° West 209 241 1,800  Level New York TRACON
Wed 09:20:23 PM 40.6667 -73.6000 62° Northeast 280 322 4,000 2,700 Climbing New York TRACON
Wed 09:21:00 PM 40.8360 -74.1551 304° West  Level FlightAware Approximate
Wed 09:21:23 PM 40.7167 -73.5167 52° Northeast 292 336 7,200  Level New York TRACON
Wed 09:22:00 PM 40.8880 -74.2556 306° West  Level FlightAware Approximate
Wed 09:22:23 PM 40.7833 -73.5333 349° North 257 296 10,000  Level New York TRACON
Wed 09:23:00 PM 40.9418 -74.3544 306° West  Level FlightAware Approximate
Wed 09:23:23 PM 40.8500 -73.5833 330° Northwest 302 348 11,500  Level New York TRACON
Wed 09:24:00 PM 40.9992 -74.4484 304° West  Level FlightAware Approximate
Wed 09:24:23 PM 40.9000 -73.6667 308° West 302 348 14,300  Level New York TRACON
Wed 09:25:23 PM 40.9500 -73.7500 308° West 307 353 16,700 1,350 Climbing New York TRACON
Wed 09:26:23 PM 40.9833 -73.8667 291° West 342 394 17,000 118 Climbing New York TRACON
Wed 09:27:55 PM 41.0242 -74.0550 286° West 369 425 17,000  Level New York Center
Wed 09:28:53 PM 41.0439 -74.1689 283° West 364 419 17,000 1,160 Level New York Center
Wed 09:29:54 PM 41.0669 -74.3075 282° West 359 413 19,300 2,164 Climbing New York Center
Wed 09:30:55 PM 41.0922 -74.4356 285° West 359 413 21,400 2,017 Climbing New York Center
Wed 09:31:53 PM 41.1131 -74.5661 282° West 359 413 23,300 1,714 Climbing New York Center
Wed 09:32:54 PM 41.1378 -74.6997 284° West 359 413 24,800 1,450 Climbing New York Center
Wed 09:33:53 PM 41.1900 -74.8239 299° West 370 426 26,200 1,361 Climbing New York Center
Wed 09:34:53 PM 41.2461 -74.9486 301° West 379 436 27,500 1,131 Climbing New York Center
Wed 09:35:55 PM 41.2997 -75.0736 300° West 392 451 28,500 1,100 Climbing New York Center
Wed 09:36:53 PM 41.3575 -75.2044 301° West 404 465 29,700 1,462 Climbing New York Center
Wed 09:37:54 PM 41.4108 -75.3325 299° West 404 465 31,400 1,377 Climbing New York Center
Wed 09:38:55 PM 41.4644 -75.4550 300° West 404 465 32,500 1,250 Climbing New York Center
Wed 09:39:54 PM 41.5050 -75.5853 293° West 393 452 33,900 1,250 Climbing New York Center
Wed 09:40:55 PM 41.5414 -75.7128 291° West 379 436 35,000 885 Climbing New York Center
Wed 09:41:56 PM 41.5800 -75.8375 293° West 379 436 35,700 504 Climbing New York Center
Wed 09:42:54 PM 41.6139 -75.9678 289° West 379 436 36,000 88 Climbing New York Center
Wed 09:45:21 PM 41.7047 -76.2939 291° West 376 433 36,000  Level Cleveland Center
Wed 09:46:21 PM 41.7431 -76.4278 291° West 382 440 36,000  Level Cleveland Center
Wed 09:47:21 PM 41.7789 -76.5564 291° West 382 440 36,000  Level Cleveland Center
Wed 09:48:21 PM 41.8147 -76.6878 290° West 382 440 36,000  Level Cleveland Center
Wed 09:49:21 PM 41.8525 -76.8194 291° West 382 440 36,000  Level Cleveland Center
Wed 09:50:21 PM 41.8881 -76.9542 290° West 382 440 36,000  Level Cleveland Center
Wed 09:51:21 PM 41.9233 -77.0861 290° West 382 440 36,000  Level Cleveland Center
Wed 09:52:21 PM 41.9586 -77.2183 290° West 376 433 36,000  Level Cleveland Center
Wed 09:53:21 PM 41.9936 -77.3478 290° West 376 433 36,000  Level Cleveland Center
Wed 09:54:21 PM 42.0308 -77.4828 290° West 376 433 36,000  Level Cleveland Center
Wed 09:55:21 PM 42.0656 -77.6156 289° West 376 433 36,000  Level Cleveland Center
Wed 09:56:21 PM 42.1000 -77.7456 290° West 376 433 36,000  Level Cleveland Center
Wed 09:57:21 PM 42.1367 -77.8783 290° West 376 433 36,000  Level Cleveland Center
Wed 09:58:21 PM 42.1689 -78.0142 288° West 376 433 36,000  Level Cleveland Center
Wed 09:59:21 PM 42.2053 -78.1444 291° West 376 433 36,000  Level Cleveland Center
Wed 10:00:21 PM 42.2411 -78.2778 290° West 376 433 36,000  Level Cleveland Center
Wed 10:01:21 PM 42.2750 -78.4111 289° West 376 433 36,000  Level Cleveland Center
Wed 10:02:21 PM 42.3019 -78.5169 289° West 376 433 36,000  Level Cleveland Center
Wed 10:03:21 PM 42.3381 -78.6647 288° West 376 433 36,000  Level Cleveland Center
Wed 10:04:21 PM 42.3714 -78.7986 289° West 376 433 36,000  Level Cleveland Center
Wed 10:05:21 PM 42.4089 -78.9467 289° West 376 433 36,000  Level Cleveland Center
Wed 10:06:21 PM 42.4422 -79.0808 289° West 376 433 36,000  Level Cleveland Center
Wed 10:07:21 PM 42.4750 -79.2011 290° West 376 433 36,000  Level Cleveland Center
Wed 10:08:21 PM 42.4953 -79.3386 281° West 381 438 36,000  Level Cleveland Center
Wed 10:09:21 PM 42.5028 -79.4792 274° West 376 433 36,000  Level Cleveland Center
Wed 10:10:21 PM 42.5083 -79.6200 273° West 371 427 36,000  Level Cleveland Center
Wed 10:11:21 PM 42.5156 -79.7606 274° West 371 427 36,000  Level Cleveland Center
Wed 10:12:21 PM 42.5250 -79.8986 275° West 371 427 36,000  Level Cleveland Center
Wed 10:13:21 PM 42.5300 -80.0564 273° West 371 427 36,000  Level Cleveland Center
Wed 10:14:21 PM 42.5325 -80.1917 271° West 371 427 36,000  Level Cleveland Center
Wed 10:15:21 PM 42.5392 -80.3325 274° West 371 427 36,000  Level Cleveland Center
Wed 10:16:21 PM 42.5436 -80.4733 273° West 377 434 36,000  Level Cleveland Center
Wed 10:17:21 PM 42.5497 -80.6142 273° West 377 434 36,000  Level Cleveland Center
Wed 10:18:21 PM 42.5558 -80.7550 273° West 370 426 36,000  Level Cleveland Center
Wed 10:19:21 PM 42.5597 -80.8906 272° West 370 426 36,000  Level Cleveland Center
Wed 10:20:21 PM 42.5656 -81.0314 273° West 370 426 36,000  Level Cleveland Center
Wed 10:21:21 PM 42.5692 -81.1697 272° West 370 426 36,000  Level Cleveland Center
Wed 10:22:21 PM 42.5747 -81.3133 273° West 365 420 36,000 -200 Level Cleveland Center
Wed 10:23:21 PM 42.5822 -81.4347 275° West 365 420 35,600 -500 Descending Cleveland Center
Wed 10:24:21 PM 42.6039 -81.5761 282° West 371 427 35,000 -300 Descending Cleveland Center
Wed 10:25:21 PM 42.6275 -81.7119 283° West 376 433 35,000  Level Cleveland Center
Wed 10:26:21 PM 42.6572 -81.8650 285° West 376 433 35,000  Level Cleveland Center
Wed 10:27:21 PM 42.6786 -82.0036 282° West 376 433 35,000  Level Cleveland Center
Wed 10:28:21 PM 42.7039 -82.1428 284° West 376 433 35,000  Level Cleveland Center
Wed 10:29:21 PM 42.7250 -82.2733 282° West 381 438 35,000  Level Cleveland Center
Wed 10:30:21 PM 42.7478 -82.4097 283° West 381 438 35,000  Level Cleveland Center
Wed 10:31:21 PM 42.7706 -82.5461 283° West 376 433 35,000  Level Cleveland Center
Wed 10:32:21 PM 42.7953 -82.6856 284° West 376 433 35,000  Level Cleveland Center
Wed 10:33:21 PM 42.8114 -82.8247 279° West 376 433 35,000  Level Cleveland Center
Wed 10:34:21 PM 42.8192 -82.9667 274° West 376 433 35,000  Level Cleveland Center
Wed 10:35:21 PM 42.8242 -83.1111 273° West 376 433 35,000  Level Cleveland Center
Wed 10:36:21 PM 42.8314 -83.2531 274° West 376 433 35,000  Level Cleveland Center
Wed 10:37:21 PM 42.8364 -83.3947 273° West 376 433 35,000  Level Cleveland Center
Wed 10:38:21 PM 42.8433 -83.5394 274° West 381 438 35,000  Level Cleveland Center
Wed 10:39:21 PM 42.8481 -83.6786 273° West 386 444 35,000 -400 Level Cleveland Center
Wed 10:40:21 PM 42.8544 -83.8206 274° West 386 444 34,200 -500 Descending Cleveland Center
Wed 10:41:21 PM 42.8606 -83.9681 273° West 386 444 34,000 -100 Descending Cleveland Center
Wed 10:42:21 PM 42.8667 -84.1158 273° West 386 444 34,000  Level Cleveland Center
Wed 10:43:21 PM 42.8706 -84.2578 272° West 386 444 34,000  Level Cleveland Center
Wed 10:44:58 PM 42.8803 -84.4950 273° West 383 441 34,000  Level Chicago Center
Wed 10:45:59 PM 42.8792 -84.6406 269° West 384 442 34,000  Level Chicago Center
Wed 10:47:00 PM 42.8625 -84.7844 261° West 385 443 34,000  Level Chicago Center
Wed 10:48:01 PM 42.8478 -84.9297 262° West 386 444 34,000  Level Chicago Center
Wed 10:49:03 PM 42.8328 -85.0753 262° West 388 447 34,000 -341 Level Chicago Center
Wed 10:50:04 PM 42.8158 -85.2219 261° West 390 449 33,300 -984 Descending Chicago Center
Wed 10:51:05 PM 42.7975 -85.3986 262° West 392 451 32,000 -1,220 Descending Chicago Center
Wed 10:52:07 PM 42.7778 -85.5467 260° West 396 456 30,800 -1,317 Descending Chicago Center
Wed 10:53:08 PM 42.7508 -85.6956 256° West 402 463 29,300 -1,623 Descending Chicago Center
Wed 10:54:09 PM 42.7239 -85.8467 256° West 408 470 27,500 -2,000 Descending Chicago Center
Wed 10:55:11 PM 42.6975 -85.9928 256° West 398 458 25,200 -2,341 Descending Chicago Center
Wed 10:56:12 PM 42.6722 -86.1303 256° West 380 437 22,700 -2,410 Descending Chicago Center
Wed 10:57:13 PM 42.6469 -86.2644 256° West 368 423 20,300 -1,328 Descending Chicago Center
Wed 10:58:14 PM 42.6219 -86.3944 255° West 356 410 20,000 -885 Descending Chicago Center
Wed 10:59:15 PM 42.5975 -86.5242 256° West 355 409 18,500 -1,610 Descending Chicago Center
Wed 11:00:17 PM 42.5742 -86.6522 256° West 350 403 16,700 -1,805 Descending Chicago Center
Wed 11:01:18 PM 42.5475 -86.7783 254° West 349 402 14,800 -1,820 Descending Chicago Center
Wed 11:02:19 PM 42.5139 -86.8978 249° West 343 395 13,000 -1,721 Descending Chicago Center
Wed 11:03:20 PM 42.4825 -87.0142 250° West 331 381 11,300 -1,475 Descending Chicago Center
Wed 11:04:21 PM 42.4464 -87.1467 250° West 316 364 10,000 -634 Descending Chicago Center
Wed 11:05:23 PM 42.4147 -87.2544 248° West 310 357 10,000  Level Chicago Center
Wed 11:06:24 PM 42.3850 -87.3672 250° West 316 364 10,000  Level Chicago Center
Wed 11:07:25 PM 42.3514 -87.4864 249° West 319 367 10,000  Level Chicago Center
Wed 11:08:26 PM 42.2981 -87.5797 232° Southwest 331 381 10,000 -295 Level Chicago Center
Wed 11:09:27 PM 42.2347 -87.6453 217° Southwest 292 336 9,400 -1,230 Descending Chicago Center
Wed 11:10:28 PM 42.1758 -87.7064 218° Southwest 271 312 7,500 -1,180 Descending Chicago Center
Wed 11:11:29 PM 42.1153 -87.7711 218° Southwest 279 321 7,000 -252 Descending Chicago Center
Wed 11:12:27 PM 42.0833 -87.8667 246° West 267 307 7,000  Level Chicago TRACON
Wed 11:13:27 PM 42.0833 -87.9667 270° West 270 311 7,000  Level Chicago TRACON
Wed 11:14:33 PM 42.0667 -88.0667 257° West 266 306 7,000 -476 Level Chicago TRACON
Wed 11:15:33 PM 42.0667 -88.1667 270° West 260 299 6,000 -1,053 Descending Chicago TRACON
Wed 11:16:27 PM 42.0667 -88.2667 270° West 257 296 5,000 -526 Descending Chicago TRACON
Wed 11:17:27 PM 42.0500 -88.3500 255° West 259 298 5,000  Level Chicago TRACON
Wed 11:18:21 PM 42.0333 -88.4333 255° West 272 313 5,000  Level Chicago TRACON
Wed 11:18:37 PM 42.0197 -88.4356 187° South 271 312 5,000  Level Chicago Center
Wed 11:19:38 PM 41.9656 -88.3853 145° Southeast 266 306 5,000  Level Chicago Center
Wed 11:20:39 PM 41.9675 -88.3033 88° East 219 252 5,000 -98 Level Chicago Center
Wed 11:21:40 PM 41.9669 -88.2267 91° East 210 242 4,800 -639 Descending Chicago Center
Wed 11:22:41 PM 41.9675 -88.1467 89° East 211 243 3,700 -1,160 Descending Chicago Center
Wed 11:23:39 PM 41.9667 -88.0500 91° East 203 234 2,500 -1,109 Descending Chicago TRACON
Wed 11:24:40 PM 41.9667 -88.0000 90° East 164 189 1,500 -843 Descending Chicago TRACON
Wed 11:25:40 PM 41.9667 -87.9333 90° East 136 157 800 -700 Descending Chicago TRACON

Login

Don't have an account? Register now (free) for customized features, flight alerts, and more!